LVHUS SADF-SADF
Flight info
| Callsign | LVHUS |
|---|---|
| Flight time | N/A |
| Altitude | 3000 |
| Route | LOCAL |
| Aircraft | C150/L-SDE2E3FGHIJ1RWXY/LB1 |
Departure
| Time | 2026-04-20 16:00 |
|---|---|
| Airport | San Fernando Airport (SADF) |
Arrival
| Time | N/A |
|---|---|
| Airport | San Fernando Airport (SADF) |
| Time | Latitude | Longitude | Altitude | Speed | Heading |
|---|---|---|---|---|---|
| 2026-04-20 15:52 | -34.45685 | -58.58768 | 10 ft | 0 kts | 334° |
| 2026-04-20 15:53 | -34.45676 | -58.58785 | 10 ft | 2 kts | 214° |
| 2026-04-20 15:53 | -34.45681 | -58.58791 | 10 ft | 3 kts | 251° |
| 2026-04-20 15:53 | -34.45696 | -58.58830 | 10 ft | 7 kts | 239° |
| 2026-04-20 15:53 | -34.45726 | -58.58904 | 10 ft | 8 kts | 245° |
| 2026-04-20 15:54 | -34.45767 | -58.58993 | 10 ft | 15 kts | 240° |
| 2026-04-20 15:54 | -34.45812 | -58.59098 | 10 ft | 15 kts | 240° |
| 2026-04-20 15:54 | -34.45869 | -58.59230 | 10 ft | 18 kts | 245° |
| 2026-04-20 15:54 | -34.45930 | -58.59377 | 10 ft | 10 kts | 236° |
| 2026-04-20 15:55 | -34.45966 | -58.59456 | 10 ft | 12 kts | 244° |
| 2026-04-20 15:55 | -34.46015 | -58.59568 | 10 ft | 14 kts | 236° |
| 2026-04-20 15:55 | -34.46026 | -58.59594 | 10 ft | 0 kts | 255° |
| 2026-04-20 15:58 | -34.46028 | -58.59599 | 10 ft | 1 kts | 255° |
| 2026-04-20 15:58 | -34.46030 | -58.59629 | 10 ft | 5 kts | 291° |
| 2026-04-20 15:58 | -34.45991 | -58.59684 | 10 ft | 11 kts | 340° |
| 2026-04-20 15:59 | -34.45938 | -58.59656 | 10 ft | 19 kts | 45° |
| 2026-04-20 15:59 | -34.45702 | -58.59383 | 37 ft | 66 kts | 53° |
| 2026-04-20 15:59 | -34.45372 | -58.58978 | 245 ft | 67 kts | 62° |
| 2026-04-20 15:59 | -34.45078 | -58.58550 | 484 ft | 64 kts | 57° |
| 2026-04-20 16:00 | -34.44931 | -58.58025 | 624 ft | 70 kts | 96° |
| 2026-04-20 16:00 | -34.45009 | -58.57486 | 825 ft | 65 kts | 114° |
| 2026-04-20 16:00 | -34.45342 | -58.57087 | 925 ft | 73 kts | 145° |
| 2026-04-20 16:00 | -34.45866 | -58.56905 | 991 ft | 86 kts | 170° |
| 2026-04-20 16:01 | -34.46443 | -58.56932 | 948 ft | 98 kts | 172° |
| 2026-04-20 16:01 | -34.47024 | -58.56950 | 1105 ft | 80 kts | 166° |
| 2026-04-20 16:01 | -34.47586 | -58.56872 | 1120 ft | 82 kts | 165° |
| 2026-04-20 16:01 | -34.48147 | -58.56721 | 1123 ft | 82 kts | 152° |
| 2026-04-20 16:02 | -34.48682 | -58.56505 | 1160 ft | 81 kts | 155° |
| 2026-04-20 16:02 | -34.49239 | -58.56343 | 1180 ft | 83 kts | 161° |
| 2026-04-20 16:02 | -34.49824 | -58.56256 | 1189 ft | 85 kts | 165° |
| 2026-04-20 16:02 | -34.50433 | -58.56279 | 1214 ft | 88 kts | 181° |
| 2026-04-20 16:03 | -34.51035 | -58.56496 | 1222 ft | 93 kts | 193° |
| 2026-04-20 16:03 | -34.51624 | -58.56773 | 1130 ft | 91 kts | 194° |
| 2026-04-20 16:03 | -34.52203 | -58.57103 | 981 ft | 91 kts | 197° |
| 2026-04-20 16:03 | -34.52787 | -58.57366 | 878 ft | 92 kts | 190° |
| 2026-04-20 16:04 | -34.53400 | -58.57570 | 857 ft | 91 kts | 188° |
| 2026-04-20 16:04 | -34.54018 | -58.57767 | 831 ft | 90 kts | 188° |
| 2026-04-20 16:04 | -34.54607 | -58.57993 | 854 ft | 86 kts | 189° |
| 2026-04-20 16:04 | -34.55152 | -58.58192 | 916 ft | 79 kts | 187° |
| 2026-04-20 16:05 | -34.55673 | -58.58441 | 942 ft | 84 kts | 200° |
| 2026-04-20 16:05 | -34.56204 | -58.58779 | 958 ft | 90 kts | 198° |
| 2026-04-20 16:05 | -34.56801 | -58.59089 | 954 ft | 94 kts | 192° |
| 2026-04-20 16:05 | -34.57399 | -58.59365 | 963 ft | 91 kts | 193° |
| 2026-04-20 16:06 | -34.57997 | -58.59627 | 904 ft | 90 kts | 193° |
| 2026-04-20 16:06 | -34.58326 | -58.59783 | 874 ft | 92 kts | 203° |